createdAt,value
2022-10-05T00:00:32.119Z,7.60
2022-10-05T00:03:04.766Z,7.62
2022-10-05T00:05:33.281Z,7.66
2022-10-05T00:08:15.270Z,7.68
2022-10-05T00:10:43.023Z,7.70
2022-10-05T00:13:19.512Z,7.71
2022-10-05T00:15:47.898Z,7.73
2022-10-05T00:18:17.318Z,7.72
2022-10-05T00:20:45.153Z,7.72
2022-10-05T00:23:21.783Z,7.72
2022-10-05T00:25:49.278Z,7.73
2022-10-05T00:28:22.940Z,7.75
2022-10-05T00:30:50.580Z,7.77
2022-10-05T00:33:18.019Z,7.79
2022-10-05T00:35:46.093Z,7.80
2022-10-05T00:38:13.494Z,7.81
2022-10-05T00:41:02.379Z,7.79
2022-10-05T00:43:42.210Z,7.79
2022-10-05T00:46:21.762Z,7.80
2022-10-05T00:49:09.043Z,7.81
2022-10-05T00:51:37.760Z,7.81
2022-10-05T00:54:18.329Z,7.80
2022-10-05T00:57:03.347Z,7.83
2022-10-05T00:59:49.267Z,7.84
2022-10-05T01:02:25.726Z,7.85
2022-10-05T01:05:14.649Z,7.85
2022-10-05T01:08:03.051Z,7.83
2022-10-05T01:10:36.918Z,7.82
2022-10-05T01:13:16.638Z,7.80
2022-10-05T01:15:50.238Z,7.76
2022-10-05T01:18:33.739Z,7.74
2022-10-05T01:21:19.672Z,7.72
2022-10-05T01:24:07.258Z,7.68
2022-10-05T01:27:06.436Z,7.65
2022-10-05T01:29:37.361Z,7.61
2022-10-05T01:32:29.286Z,7.54
2022-10-05T01:35:17.890Z,7.55
2022-10-05T01:37:48.795Z,7.56
2022-10-05T01:40:40.893Z,7.55
2022-10-05T01:43:20.636Z,7.51
2022-10-05T01:46:03.774Z,7.50
2022-10-05T01:48:51.527Z,7.51
2022-10-05T01:51:38.582Z,7.53
2022-10-05T01:54:15.667Z,7.53
2022-10-05T01:57:07.440Z,7.50
2022-10-05T01:59:40.877Z,7.48
2022-10-05T02:02:14.137Z,7.43
2022-10-05T02:05:02.824Z,7.40
2022-10-05T02:07:34.219Z,7.35
2022-10-05T02:10:21.491Z,7.29
2022-10-05T02:12:51.183Z,7.24
2022-10-05T02:15:22.465Z,7.17
2022-10-05T02:17:52.720Z,7.14
2022-10-05T02:20:23.325Z,7.14
2022-10-05T02:22:57.179Z,7.16
2022-10-05T02:25:30.801Z,7.17
2022-10-05T02:28:09.835Z,7.18
2022-10-05T02:30:41.473Z,7.18
2022-10-05T02:33:25.061Z,7.18
2022-10-05T02:35:53.434Z,7.20
2022-10-05T02:38:27.036Z,7.25
2022-10-05T02:41:17.981Z,7.28
2022-10-05T02:43:51.808Z,7.29
2022-10-05T02:46:28.847Z,7.26
2022-10-05T02:49:15.011Z,7.26
2022-10-05T02:52:03.588Z,7.22
2022-10-05T02:54:34.686Z,7.20
2022-10-05T02:57:11.248Z,7.20
2022-10-05T02:59:42.014Z,7.17
2022-10-05T03:02:16.736Z,7.16
2022-10-05T03:04:53.687Z,7.15
2022-10-05T03:07:33.867Z,7.13
2022-10-05T03:10:12.838Z,7.13
2022-10-05T03:13:03.235Z,7.11
2022-10-05T03:15:50.914Z,7.11
2022-10-05T03:18:38.599Z,7.11
2022-10-05T03:21:35.265Z,7.11
2022-10-05T03:24:31.831Z,7.13
2022-10-05T03:27:06.877Z,7.12
2022-10-05T03:29:55.967Z,7.07
2022-10-05T03:32:51.266Z,7.01
2022-10-05T03:35:25.315Z,6.91
2022-10-05T03:38:11.095Z,6.83
2022-10-05T03:40:57.305Z,6.76
2022-10-05T03:43:48.015Z,6.67
2022-10-05T03:46:25.140Z,6.65
2022-10-05T03:49:08.192Z,6.66
2022-10-05T03:51:38.037Z,6.66
2022-10-05T03:54:23.610Z,6.67
2022-10-05T03:56:56.918Z,6.68
2022-10-05T03:59:32.552Z,6.71
2022-10-05T04:02:05.161Z,6.74
2022-10-05T04:04:45.165Z,6.75
2022-10-05T04:07:24.975Z,6.77
2022-10-05T04:09:53.012Z,6.78
2022-10-05T04:12:25.920Z,6.80
2022-10-05T04:15:18.573Z,6.83
2022-10-05T04:17:48.979Z,6.82
2022-10-05T04:20:22.283Z,6.80
2022-10-05T04:23:02.015Z,6.82
2022-10-05T04:25:38.903Z,6.81
2022-10-05T04:28:32.576Z,6.76
2022-10-05T04:31:02.765Z,6.72
2022-10-05T04:33:31.451Z,6.68
2022-10-05T04:36:18.937Z,6.64
2022-10-05T04:38:52.858Z,6.62
2022-10-05T04:41:50.281Z,6.63
2022-10-05T04:44:24.560Z,6.61
2022-10-05T04:47:16.980Z,6.60
2022-10-05T04:49:51.120Z,6.61
2022-10-05T04:52:37.528Z,6.63
2022-10-05T04:55:28.708Z,6.66
2022-10-05T04:58:18.114Z,6.69
2022-10-05T05:01:01.955Z,6.72
2022-10-05T05:03:51.131Z,6.75
2022-10-05T05:06:40.909Z,6.75
2022-10-05T05:09:25.377Z,6.78
2022-10-05T05:12:20.818Z,6.78
2022-10-05T05:15:04.348Z,6.77
2022-10-05T05:17:37.301Z,6.76
2022-10-05T05:20:19.283Z,6.78
2022-10-05T05:22:50.681Z,6.78
2022-10-05T05:25:28.272Z,6.78
2022-10-05T05:28:08.368Z,6.76
2022-10-05T05:30:39.690Z,6.77
2022-10-05T05:33:26.907Z,6.76
2022-10-05T05:36:23.426Z,6.76
2022-10-05T05:39:14.300Z,6.78
2022-10-05T05:41:57.612Z,6.78
2022-10-05T05:44:27.916Z,6.79
2022-10-05T05:47:05.732Z,6.79
2022-10-05T05:50:07.112Z,6.79
2022-10-05T05:52:35.486Z,6.79
2022-10-05T05:55:15.100Z,6.85
2022-10-05T05:57:46.330Z,6.91
2022-10-05T06:00:21.972Z,6.98
2022-10-05T06:03:00.885Z,7.03
2022-10-05T06:05:40.765Z,7.05
2022-10-05T06:08:48.198Z,7.10
2022-10-05T06:11:24.542Z,7.12
2022-10-05T06:13:51.855Z,7.19
2022-10-05T06:16:26.029Z,7.23
2022-10-05T06:18:59.054Z,7.24
2022-10-05T06:21:35.987Z,7.25
2022-10-05T06:24:09.850Z,7.27
2022-10-05T06:27:01.561Z,7.29
2022-10-05T06:29:44.728Z,7.32
2022-10-05T06:32:29.683Z,7.38
2022-10-05T06:35:07.754Z,7.41
2022-10-05T06:37:59.852Z,7.47
2022-10-05T06:40:40.953Z,7.55
2022-10-05T06:43:26.909Z,7.68
2022-10-05T06:46:24.969Z,7.78
2022-10-05T06:49:23.097Z,7.85
2022-10-05T06:52:16.454Z,7.90
2022-10-05T06:55:03.962Z,8.02
2022-10-05T06:58:04.568Z,8.14
2022-10-05T07:00:44.566Z,8.17
2022-10-05T07:03:24.923Z,8.17
2022-10-05T07:05:58.812Z,8.11
2022-10-05T07:08:58.351Z,8.11
2022-10-05T07:11:37.829Z,8.11
2022-10-05T07:14:27.852Z,8.08
2022-10-05T07:17:16.622Z,8.03
2022-10-05T07:19:59.043Z,8.07
2022-10-05T07:22:42.697Z,8.21
2022-10-05T07:25:23.167Z,8.33
2022-10-05T07:27:54.509Z,8.38
2022-10-05T07:30:22.252Z,8.38
2022-10-05T07:33:01.997Z,8.43
2022-10-05T07:35:46.744Z,8.51
2022-10-05T07:38:20.576Z,8.58
2022-10-05T07:40:53.946Z,8.69
2022-10-05T07:43:45.343Z,8.80
2022-10-05T07:46:19.685Z,8.84
2022-10-05T07:49:02.239Z,8.73
2022-10-05T07:51:36.816Z,8.71
2022-10-05T07:54:25.497Z,8.65
2022-10-05T07:57:09.317Z,8.66
2022-10-05T07:59:48.010Z,8.71
2022-10-05T08:02:19.747Z,8.69
2022-10-05T08:04:53.632Z,8.71
2022-10-05T08:07:21.132Z,8.72
2022-10-05T08:09:55.026Z,8.78
2022-10-05T08:12:41.057Z,8.84
2022-10-05T08:15:16.162Z,8.92
2022-10-05T08:18:12.783Z,8.94
2022-10-05T08:20:48.402Z,8.99
2022-10-05T08:23:46.122Z,9.09
2022-10-05T08:26:42.640Z,9.21
2022-10-05T08:29:16.249Z,9.32
2022-10-05T08:31:50.473Z,9.41
2022-10-05T08:34:29.143Z,9.46
2022-10-05T08:37:19.362Z,9.49
2022-10-05T08:39:56.346Z,9.50
2022-10-05T08:42:42.524Z,9.51
2022-10-05T08:48:02.534Z,9.67
2022-10-05T08:50:33.405Z,9.70
2022-10-05T08:53:36.037Z,9.70
2022-10-05T08:56:26.352Z,9.75
2022-10-05T08:59:00.786Z,9.83
2022-10-05T09:01:34.752Z,9.82
2022-10-05T09:04:17.557Z,9.73
2022-10-05T09:07:21.624Z,9.66
2022-10-05T09:10:26.944Z,9.63
2022-10-05T09:13:18.924Z,9.65
2022-10-05T09:15:52.630Z,9.68
2022-10-05T09:18:32.800Z,9.72
2022-10-05T09:21:15.479Z,9.83
2022-10-05T09:23:44.354Z,9.96
2022-10-05T09:26:30.309Z,10.16
2022-10-05T09:29:17.759Z,10.48
2022-10-05T09:32:14.189Z,10.72
2022-10-05T09:35:00.489Z,11.05
2022-10-05T09:37:43.606Z,11.37
2022-10-05T09:40:34.280Z,11.61
2022-10-05T09:43:19.808Z,12.06
2022-10-05T09:46:07.039Z,12.52
2022-10-05T09:48:55.502Z,12.74
2022-10-05T09:51:26.176Z,12.81
2022-10-05T09:54:20.013Z,12.93
2022-10-05T09:57:12.228Z,13.13
2022-10-05T10:00:11.919Z,13.29
2022-10-05T10:03:05.730Z,13.53
2022-10-05T10:06:02.010Z,13.65
2022-10-05T10:08:45.129Z,13.71
2022-10-05T10:11:50.864Z,13.77
2022-10-05T10:17:37.394Z,13.86
2022-10-05T10:20:36.900Z,13.87
2022-10-05T10:23:33.284Z,14.09
2022-10-05T10:26:18.849Z,14.32
2022-10-05T10:29:04.885Z,14.42
2022-10-05T10:32:09.565Z,14.49
2022-10-05T10:34:49.624Z,14.54
2022-10-05T10:37:36.719Z,14.73
2022-10-05T10:40:26.280Z,15.02
2022-10-05T10:42:58.592Z,15.23
2022-10-05T10:45:48.685Z,15.37
2022-10-05T10:48:31.556Z,15.58
2022-10-05T10:51:24.551Z,15.85
2022-10-05T10:54:11.918Z,15.98
2022-10-05T10:57:08.709Z,16.16
2022-10-05T10:59:57.532Z,16.23
2022-10-05T11:02:36.475Z,16.37
2022-10-05T11:05:19.060Z,16.48
2022-10-05T11:08:06.559Z,16.59
2022-10-05T11:10:54.024Z,16.66
2022-10-05T11:13:43.034Z,16.80
2022-10-05T11:16:33.882Z,16.87
2022-10-05T11:19:40.730Z,17.06
2022-10-05T11:22:44.378Z,17.09
2022-10-05T11:25:21.486Z,17.22
2022-10-05T11:28:04.366Z,17.33
2022-10-05T11:30:50.389Z,17.29
2022-10-05T11:33:35.088Z,17.04
2022-10-05T11:36:20.887Z,16.77
2022-10-05T11:38:57.368Z,16.54
2022-10-05T11:41:43.187Z,16.33
2022-10-05T11:44:42.979Z,16.20
2022-10-05T11:47:16.746Z,16.08
2022-10-05T11:49:47.758Z,15.90
2022-10-05T11:52:22.979Z,15.78
2022-10-05T11:55:21.245Z,15.62
2022-10-05T11:57:56.946Z,15.55
2022-10-05T12:00:33.743Z,15.53
2022-10-05T12:03:20.956Z,15.50
2022-10-05T12:05:51.814Z,15.45
2022-10-05T12:08:31.668Z,15.47
2022-10-05T12:11:38.957Z,15.45
2022-10-05T12:14:26.584Z,15.36
2022-10-05T12:17:09.332Z,15.18
2022-10-05T12:19:45.471Z,15.09
2022-10-05T12:22:18.607Z,14.90
2022-10-05T12:25:03.868Z,14.78
2022-10-05T12:27:34.572Z,14.75
2022-10-05T12:30:13.927Z,14.78
2022-10-05T12:32:50.781Z,14.84
2022-10-05T12:35:43.546Z,14.85
2022-10-05T12:37:57.962Z,14.90
2022-10-05T12:40:46.115Z,14.89
2022-10-05T12:43:26.062Z,14.88
2022-10-05T12:46:05.973Z,14.90
2022-10-05T12:48:50.991Z,14.91
2022-10-05T12:51:55.139Z,14.88
2022-10-05T12:54:51.384Z,14.84
2022-10-05T12:57:34.059Z,14.79
2022-10-05T13:00:22.725Z,14.78
2022-10-05T13:02:54.527Z,14.75
2022-10-05T13:05:32.770Z,14.74
2022-10-05T13:08:22.524Z,14.73
2022-10-05T13:11:05.936Z,14.73
2022-10-05T13:14:12.012Z,14.74
2022-10-05T13:16:56.627Z,14.73
2022-10-05T13:19:46.173Z,14.68
2022-10-05T13:22:29.604Z,14.76
2022-10-05T13:25:17.083Z,14.87
2022-10-05T13:27:51.329Z,14.91
2022-10-05T13:30:21.763Z,15.00
2022-10-05T13:32:56.439Z,15.04
2022-10-05T13:35:45.551Z,15.12
2022-10-05T13:38:25.546Z,15.22
2022-10-05T13:41:08.588Z,15.23
2022-10-05T13:43:57.437Z,15.19
2022-10-05T13:46:46.700Z,15.19
2022-10-05T13:49:28.386Z,15.24
2022-10-05T13:52:19.055Z,15.32
2022-10-05T13:55:01.846Z,15.32
2022-10-05T13:57:54.645Z,15.23
2022-10-05T14:00:26.524Z,15.13
2022-10-05T14:02:55.865Z,15.05
2022-10-05T14:05:27.207Z,15.01
2022-10-05T14:07:58.348Z,15.01
2022-10-05T14:10:43.757Z,14.97
2022-10-05T14:13:26.215Z,14.92
2022-10-05T14:16:08.985Z,14.94
2022-10-05T14:18:37.538Z,14.82
2022-10-05T14:21:11.382Z,14.79
2022-10-05T14:23:42.457Z,14.79
2022-10-05T14:26:32.741Z,14.68
2022-10-05T14:29:03.924Z,14.56
2022-10-05T14:31:34.778Z,14.43
2022-10-05T14:34:23.630Z,14.33
2022-10-05T14:37:04.293Z,14.26
2022-10-05T14:39:33.863Z,14.22
2022-10-05T14:42:14.182Z,14.14
2022-10-05T14:44:41.708Z,14.07
2022-10-05T14:47:18.165Z,14.03
2022-10-05T14:50:17.164Z,13.98
2022-10-05T14:52:59.661Z,13.93
2022-10-05T14:55:43.144Z,13.89
2022-10-05T14:58:14.266Z,13.81
2022-10-05T15:00:48.943Z,13.74
2022-10-05T15:03:34.905Z,13.67
2022-10-05T15:06:03.122Z,13.59
2022-10-05T15:08:47.511Z,13.52
2022-10-05T15:11:39.774Z,13.46
2022-10-05T15:14:10.722Z,13.41
2022-10-05T15:16:39.958Z,13.33
2022-10-05T15:19:22.762Z,13.26
2022-10-05T15:22:08.906Z,13.18
2022-10-05T15:24:57.838Z,13.11
2022-10-05T15:27:31.897Z,13.02
2022-10-05T15:30:07.221Z,12.95
2022-10-05T15:32:47.298Z,12.87
2022-10-05T15:35:40.520Z,12.79
2022-10-05T15:38:25.771Z,12.71
2022-10-05T15:41:06.129Z,12.60
2022-10-05T15:43:37.632Z,12.48
2022-10-05T15:46:21.539Z,12.35
2022-10-05T15:49:16.010Z,12.26
2022-10-05T15:52:18.300Z,12.12
2022-10-05T15:54:58.423Z,11.97
2022-10-05T15:57:41.246Z,11.84
2022-10-05T16:00:17.182Z,11.73
2022-10-05T16:03:04.516Z,11.61
2022-10-05T16:06:02.508Z,11.49
2022-10-05T16:08:53.595Z,11.37
2022-10-05T16:11:45.528Z,11.22
2022-10-05T16:14:38.798Z,11.10
2022-10-05T16:17:29.365Z,10.96
2022-10-05T16:20:06.224Z,10.81
2022-10-05T16:22:48.873Z,10.67
2022-10-05T16:25:21.878Z,10.55
2022-10-05T16:28:08.028Z,10.43
2022-10-05T16:30:45.037Z,10.33
2022-10-05T16:33:16.077Z,10.25
2022-10-05T16:35:53.229Z,10.19
2022-10-05T16:38:26.727Z,10.14
2022-10-05T16:41:21.812Z,10.08
2022-10-05T16:43:52.817Z,10.02
2022-10-05T16:46:35.609Z,9.92
2022-10-05T16:49:16.017Z,9.84
2022-10-05T16:51:58.523Z,9.73
2022-10-05T16:54:35.153Z,9.69
2022-10-05T16:57:23.965Z,9.61
2022-10-05T17:00:13.610Z,9.55
2022-10-05T17:02:58.675Z,9.52
2022-10-05T17:05:32.268Z,9.50
2022-10-05T17:08:11.805Z,9.45
2022-10-05T17:11:01.976Z,9.40
2022-10-05T17:14:05.217Z,9.33
2022-10-05T17:16:39.060Z,9.23
2022-10-05T17:19:25.058Z,9.14
2022-10-05T17:22:04.983Z,9.08
2022-10-05T17:24:54.418Z,9.04
2022-10-05T17:27:37.210Z,8.97
2022-10-05T17:30:24.706Z,8.92
2022-10-05T17:33:03.447Z,8.87
2022-10-05T17:36:07.943Z,8.82
2022-10-05T17:38:41.687Z,8.78
2022-10-05T17:41:20.923Z,8.75
2022-10-05T17:44:08.282Z,8.72
2022-10-05T17:46:45.107Z,8.70
2022-10-05T17:49:21.913Z,8.67
2022-10-05T17:52:11.377Z,8.65
2022-10-05T17:55:07.270Z,8.62
2022-10-05T17:57:36.264Z,8.59
2022-10-05T18:00:28.482Z,8.55
2022-10-05T18:02:57.621Z,8.52
2022-10-05T18:05:29.072Z,8.50
2022-10-05T18:08:17.031Z,8.44
2022-10-05T18:11:12.383Z,8.41
2022-10-05T18:13:46.712Z,8.39
2022-10-05T18:16:34.176Z,8.34
2022-10-05T18:19:02.232Z,8.29
2022-10-05T18:21:35.117Z,8.22
2022-10-05T18:24:15.934Z,8.17
2022-10-05T18:26:59.101Z,8.10
2022-10-05T18:30:11.817Z,8.05
2022-10-05T18:32:57.722Z,8.04
2022-10-05T18:35:50.361Z,8.02
2022-10-05T18:38:28.965Z,7.98
2022-10-05T18:41:01.698Z,7.94
2022-10-05T18:43:53.897Z,7.90
2022-10-05T18:46:42.711Z,7.85
2022-10-05T18:49:32.412Z,7.82
2022-10-05T18:52:18.770Z,7.78
2022-10-05T18:55:05.354Z,7.73
2022-10-05T18:58:04.581Z,7.71
2022-10-05T19:00:42.032Z,7.69
2022-10-05T19:03:39.711Z,7.64
2022-10-05T19:09:39.532Z,7.61
2022-10-05T19:12:52.331Z,7.56
2022-10-05T19:15:30.095Z,7.55
2022-10-05T19:18:03.327Z,7.52
2022-10-05T19:20:45.122Z,7.49
2022-10-05T19:23:25.598Z,7.45
2022-10-05T19:26:20.827Z,7.43
2022-10-05T19:28:57.988Z,7.41
2022-10-05T19:31:38.091Z,7.38
2022-10-05T19:34:25.954Z,7.34
2022-10-05T19:36:58.601Z,7.32
2022-10-05T19:39:58.195Z,7.29
2022-10-05T19:42:49.042Z,7.26
2022-10-05T19:45:27.914Z,7.22
2022-10-05T19:48:21.627Z,7.17
2022-10-05T19:50:55.183Z,7.14
2022-10-05T19:53:31.922Z,7.09
2022-10-05T19:56:18.524Z,7.07
2022-10-05T19:58:47.124Z,7.05
2022-10-05T20:01:29.587Z,7.03
2022-10-05T20:04:00.422Z,7.00
2022-10-05T20:06:30.676Z,6.98
2022-10-05T20:09:03.864Z,6.96
2022-10-05T20:11:31.864Z,6.92
2022-10-05T20:14:03.430Z,6.88
2022-10-05T20:16:50.519Z,6.86
2022-10-05T20:19:40.008Z,6.84
2022-10-05T20:22:35.957Z,6.82
2022-10-05T20:25:09.837Z,6.79
2022-10-05T20:27:41.115Z,6.77
2022-10-05T20:30:14.348Z,6.74
2022-10-05T20:32:47.144Z,6.71
2022-10-05T20:35:16.023Z,6.68
2022-10-05T20:37:43.488Z,6.64
2022-10-05T20:40:10.984Z,6.59
2022-10-05T20:42:38.393Z,6.57
2022-10-05T20:45:06.798Z,6.53
2022-10-05T20:47:36.216Z,6.51
2022-10-05T20:50:05.496Z,6.48
2022-10-05T20:52:33.059Z,6.45
2022-10-05T20:55:04.725Z,6.43
2022-10-05T20:57:33.647Z,6.41
2022-10-05T21:00:01.634Z,6.38
2022-10-05T21:02:29.341Z,6.35
2022-10-05T21:04:59.909Z,6.34
2022-10-05T21:07:28.711Z,6.33
2022-10-05T21:09:56.509Z,6.31
2022-10-05T21:12:25.863Z,6.27
2022-10-05T21:14:59.186Z,6.27
2022-10-05T21:17:26.719Z,6.26
2022-10-05T21:19:54.183Z,6.23
2022-10-05T21:22:22.265Z,6.21
2022-10-05T21:24:49.680Z,6.20
2022-10-05T21:27:17.207Z,6.21
2022-10-05T21:29:44.762Z,6.20
2022-10-05T21:32:12.168Z,6.21
2022-10-05T21:34:40.766Z,6.23
2022-10-05T21:37:08.515Z,6.24
2022-10-05T21:39:36.110Z,6.23
2022-10-05T21:42:04.045Z,6.22
2022-10-05T21:44:31.707Z,6.21
2022-10-05T21:46:59.137Z,6.23
2022-10-05T21:49:26.974Z,6.20
2022-10-05T21:51:54.600Z,6.20
2022-10-05T21:54:23.156Z,6.19
2022-10-05T21:56:52.547Z,6.17
2022-10-05T21:59:22.537Z,6.15
2022-10-05T22:01:50.127Z,6.13
2022-10-05T22:04:17.776Z,6.14
2022-10-05T22:06:45.447Z,6.13
2022-10-05T22:09:13.103Z,6.13
2022-10-05T22:11:40.804Z,6.13
2022-10-05T22:14:10.774Z,6.12
2022-10-05T22:16:40.724Z,6.11
2022-10-05T22:19:14.587Z,6.10
2022-10-05T22:21:42.340Z,6.09
2022-10-05T22:24:12.470Z,6.09
2022-10-05T22:26:46.847Z,6.09
2022-10-05T22:29:16.108Z,6.08
2022-10-05T22:31:48.177Z,6.09
2022-10-05T22:34:18.905Z,6.10
2022-10-05T22:36:50.930Z,6.09
2022-10-05T22:39:25.600Z,6.08
2022-10-05T22:41:56.524Z,6.09
2022-10-05T22:44:27.355Z,6.09
2022-10-05T22:46:56.954Z,6.09
2022-10-05T22:49:25.711Z,6.10
2022-10-05T22:51:59.440Z,6.10
2022-10-05T22:54:32.469Z,6.10
2022-10-05T22:56:59.907Z,6.09
2022-10-05T22:59:29.866Z,6.09
2022-10-05T23:01:57.715Z,6.09
2022-10-05T23:04:25.557Z,6.12
2022-10-05T23:06:52.936Z,6.12
2022-10-05T23:09:20.327Z,6.12
2022-10-05T23:11:49.591Z,6.09
2022-10-05T23:14:17.469Z,6.07
2022-10-05T23:16:45.019Z,6.04
2022-10-05T23:19:12.362Z,6.02
2022-10-05T23:21:40.006Z,6.01
2022-10-05T23:24:07.725Z,5.98
2022-10-05T23:26:35.193Z,5.95
2022-10-05T23:29:02.523Z,5.94
2022-10-05T23:31:30.855Z,5.94
2022-10-05T23:33:58.457Z,5.93
2022-10-05T23:36:27.930Z,5.93
2022-10-05T23:38:55.350Z,5.91
2022-10-05T23:41:23.126Z,5.94
2022-10-05T23:43:50.744Z,5.94
2022-10-05T23:46:18.494Z,5.95
2022-10-05T23:48:53.734Z,5.95
2022-10-05T23:51:34.913Z,5.96
2022-10-05T23:54:02.385Z,5.96
2022-10-05T23:56:31.241Z,5.97
2022-10-05T23:58:58.887Z,5.97
